< Cyclone 200411 2006 Season Cyclone 200605 >
Cyclone 200601 (BERTIE)
General InformationDetailed Track InformationTrack Information on Google MapsList of All Images || ResourceGoogle EarthGE AnimationAtom FeedGeoJSON
Detalied Best Track Wind (Time Zone = UTC)
Year Month Day Hour Lat. Long. Wind (kt) Gust (kt) Direc. of Major Storm Axis Radius of Major Storm Axis (nm) Radius of Minor Storm Axis (nm) Direc. of Major Gale Axis Radius of Major Gale Axis (nm) Radius of Minor Gale Axis (nm) Image
2005 11 18 06 -4.4 95.5 25 45 symmetric - - symmetric - - Image
2005 11 18 12 -4.4 95.5 25 45 symmetric - - symmetric - - Image
2005 11 18 18 -4.7 95.0 25 45 symmetric - - symmetric - - Image
2005 11 19 00 -5.4 94.5 30 45 symmetric - - symmetric - - Image
2005 11 19 06 -6.5 94.2 35 50 symmetric - - symmetric - - Image
2005 11 19 12 -6.9 94.0 10 55 symmetric - - symmetric - - Image
2005 11 19 18 -7.3 94.0 45 60 symmetric - - symmetric - - Image
2005 11 20 00 -7.5 94.0 45 60 symmetric - - symmetric - - Image
2005 11 20 06 -7.9 93.8 50 70 symmetric - - symmetric - - Image
2005 11 20 12 -8.3 93.6 50 70 symmetric - - symmetric - - Image
2005 11 20 18 -8.7 93.2 50 70 symmetric - - symmetric - - Image
2005 11 21 00 -8.9 92.8 55 80 symmetric - - symmetric - - Image
2005 11 21 06 -9.5 92.3 65 90 symmetric - - symmetric - - Image
2005 11 21 12 -10.0 91.8 70 95 symmetric - - symmetric - - Image
2005 11 21 18 -10.4 91.3 75 105 symmetric - - symmetric - - Image
2005 11 22 00 -10.8 91.2 75 105 symmetric - - symmetric - - Image
2005 11 22 06 -11.4 90.9 90 125 symmetric - - symmetric - - Image
2005 11 22 12 -11.7 90.5 100 145 symmetric - - symmetric - - Image
2005 11 22 18 -12.1 90.4 100 145 symmetric - - symmetric - - Image
2005 11 23 00 -12.5 90.3 100 145 symmetric - - symmetric - - Image
2005 11 23 06 -12.8 90.3 100 145 symmetric - - symmetric - - Image
2005 11 23 12 -13.4 90.2 100 145 symmetric - - symmetric - - Image
2005 11 23 18 -14.0 90.0 95 135 symmetric - - symmetric - - Image
2005 11 24 00 -14.2 89.8 95 135 symmetric - - symmetric - - Image
< Cyclone 200411 2006 Season Cyclone 200605 >

Help